createdAt,value
2022-08-11T00:03:44.835Z,66710.31
2022-08-11T00:08:51.959Z,66687.69
2022-08-11T00:13:56.309Z,66661.81
2022-08-11T00:19:02.143Z,66671.47
2022-08-11T00:24:08.732Z,66666.13
2022-08-11T00:29:13.764Z,66651.03
2022-08-11T00:34:20.165Z,66673.66
2022-08-11T00:39:28.515Z,66646.69
2022-08-11T00:44:49.705Z,66629.00
2022-08-11T00:50:03.792Z,66578.38
2022-08-11T00:55:37.574Z,66610.19
2022-08-11T01:01:02.853Z,66647.34
2022-08-11T01:06:49.686Z,66615.50
2022-08-11T01:12:22.964Z,66521.84
2022-08-11T01:17:57.518Z,66522.50
2022-08-11T01:23:32.061Z,66500.00
2022-08-11T01:29:06.247Z,66537.59
2022-08-11T01:34:37.093Z,66513.44
2022-08-11T01:40:17.059Z,66619.78
2022-08-11T01:45:33.396Z,66602.19
2022-08-11T01:51:03.472Z,66616.56
2022-08-11T01:56:23.596Z,66619.84
2022-08-11T02:01:44.485Z,66615.56
2022-08-11T02:06:58.412Z,66601.59
2022-08-11T02:12:28.539Z,66588.13
2022-08-11T02:18:00.505Z,66594.13
2022-08-11T02:29:06.541Z,66615.63
2022-08-11T02:34:18.600Z,66595.66
2022-08-11T02:39:27.033Z,66545.06
2022-08-11T02:44:40.123Z,66492.09
2022-08-11T02:50:06.944Z,66500.47
2022-08-11T02:55:48.805Z,66502.06
2022-08-11T03:00:55.135Z,66499.53
2022-08-11T03:06:12.103Z,66502.22
2022-08-11T03:11:40.204Z,66541.84
2022-08-11T03:16:53.729Z,66619.78
2022-08-11T03:22:12.259Z,66459.09
2022-08-11T03:27:34.232Z,66524.63
2022-08-11T03:33:12.237Z,66568.72
2022-08-11T03:38:20.295Z,66609.09
2022-08-11T03:43:58.483Z,66648.91
2022-08-11T03:49:23.987Z,66702.25
2022-08-11T03:54:40.539Z,66716.84
2022-08-11T04:00:16.667Z,66740.97
2022-08-11T04:05:54.243Z,66797.41
2022-08-11T04:11:33.036Z,66825.38
2022-08-11T04:16:45.883Z,66776.34
2022-08-11T04:22:43.335Z,66784.97
2022-08-11T04:28:29.307Z,66883.13
2022-08-11T04:33:45.556Z,66814.75
2022-08-11T04:39:20.300Z,66837.91
2022-08-11T04:45:03.613Z,66925.63
2022-08-11T04:51:09.144Z,66994.63
2022-08-11T04:56:35.479Z,66934.88
2022-08-11T05:02:00.825Z,66933.75
2022-08-11T05:07:55.448Z,66992.41
2022-08-11T05:13:23.353Z,67018.91
2022-08-11T05:18:48.772Z,67039.94
2022-08-11T05:24:16.033Z,67027.84
2022-08-11T05:30:00.426Z,67095.44
2022-08-11T05:35:10.678Z,67078.75
2022-08-11T05:41:00.111Z,67186.78
2022-08-11T05:46:23.877Z,67241.31
2022-08-11T05:51:55.430Z,67345.50
2022-08-11T05:57:01.271Z,67360.03
2022-08-11T06:02:07.798Z,67305.56
2022-08-11T06:07:17.758Z,67300.72
2022-08-11T06:12:24.811Z,67388.75
2022-08-11T06:17:38.995Z,67405.03
2022-08-11T06:22:49.750Z,67481.75
2022-08-11T06:27:57.762Z,67533.22
2022-08-11T06:33:09.741Z,67540.84
2022-08-11T06:38:49.732Z,67506.59
2022-08-11T06:44:05.395Z,67416.34
2022-08-11T06:49:27.962Z,67532.06
2022-08-11T06:54:43.312Z,67542.84
2022-08-11T07:00:08.203Z,67516.28
2022-08-11T07:05:24.381Z,67578.66
2022-08-11T07:11:00.786Z,67663.16
2022-08-11T07:16:10.742Z,67699.38
2022-08-11T07:22:02.730Z,67638.75
2022-08-11T07:27:37.707Z,67637.13
2022-08-11T07:32:50.967Z,67580.13
2022-08-11T07:38:02.075Z,67548.25
2022-08-11T07:43:13.515Z,67602.50
2022-08-11T07:48:35.678Z,67623.47
2022-08-11T07:53:57.745Z,67461.25
2022-08-11T07:59:22.018Z,67495.81
2022-08-11T08:05:05.437Z,67487.63
2022-08-11T08:10:28.487Z,67551.03
2022-08-11T08:15:51.134Z,67475.88
2022-08-11T08:21:12.116Z,67671.78
2022-08-11T08:26:34.899Z,67627.38
2022-08-11T08:31:40.140Z,67666.94
2022-08-11T08:36:44.361Z,67637.66
2022-08-11T08:41:52.732Z,67718.31
2022-08-11T08:52:30.800Z,67728.66
2022-08-11T08:57:39.794Z,67851.69
2022-08-11T09:02:46.630Z,67736.25
2022-08-11T09:07:58.144Z,67734.00
2022-08-11T09:13:05.625Z,67760.16
2022-08-11T09:18:13.014Z,67860.91
2022-08-11T09:24:07.781Z,67812.06
2022-08-11T09:29:15.699Z,67790.44
2022-08-11T09:34:21.296Z,67810.41
2022-08-11T09:39:43.668Z,67907.00
2022-08-11T09:44:50.932Z,67828.91
2022-08-11T09:50:01.360Z,67736.78
2022-08-11T09:55:11.298Z,67318.41
2022-08-11T10:00:16.613Z,67034.06
2022-08-11T10:05:36.502Z,67059.38
2022-08-11T10:10:44.999Z,67208.28
2022-08-11T10:16:14.446Z,67295.78
2022-08-11T10:21:28.546Z,67325.13
2022-08-11T10:26:54.628Z,67432.00
2022-08-11T10:32:17.394Z,67477.44
2022-08-11T10:38:07.917Z,67532.13
2022-08-11T10:43:07.630Z,67530.47
2022-08-11T10:48:15.515Z,67586.88
2022-08-11T10:53:39.816Z,67530.47
2022-08-11T10:58:49.380Z,67598.09
2022-08-11T11:03:56.112Z,67646.94
2022-08-11T11:09:06.325Z,67574.28
2022-08-11T11:14:29.033Z,67662.50
2022-08-11T11:19:33.615Z,67746.50
2022-08-11T11:24:47.151Z,67774.13
2022-08-11T11:30:01.566Z,67799.09
2022-08-11T11:35:18.897Z,67937.94
2022-08-11T11:40:31.563Z,68134.94
2022-08-11T11:45:36.319Z,68487.69
2022-08-11T11:50:40.389Z,68509.47
2022-08-11T11:55:46.774Z,68606.41
2022-08-11T12:01:11.016Z,68458.91
2022-08-11T12:06:15.709Z,68488.78
2022-08-11T12:11:40.399Z,68369.19
2022-08-11T12:16:50.171Z,68108.88
2022-08-11T12:22:14.428Z,68131.63
2022-08-11T12:27:25.261Z,67851.19
2022-08-11T12:32:33.041Z,67779.00
2022-08-11T12:37:40.581Z,67690.16
2022-08-11T12:43:08.308Z,67674.50
2022-08-11T12:48:58.320Z,67950.38
2022-08-11T12:54:11.850Z,67705.91
2022-08-11T12:59:34.746Z,67628.47
2022-08-11T13:04:59.539Z,67672.34
2022-08-11T13:10:07.484Z,68076.88
2022-08-11T13:15:23.890Z,68302.22
2022-08-11T13:20:28.629Z,68521.50
2022-08-11T13:25:34.735Z,68257.69
2022-08-11T13:30:59.515Z,67974.22
2022-08-11T13:36:04.174Z,67887.53
2022-08-11T13:41:28.602Z,68089.31
2022-08-11T13:46:35.281Z,68017.56
2022-08-11T13:51:40.239Z,67933.56
2022-08-11T13:56:52.780Z,67127.38
2022-08-11T14:02:22.052Z,66875.53
2022-08-11T14:07:35.885Z,66929.88
2022-08-11T14:13:00.039Z,67042.09
2022-08-11T14:18:08.080Z,67052.88
2022-08-11T14:23:16.226Z,67030.75
2022-08-11T14:28:34.080Z,67083.56
2022-08-11T14:33:59.613Z,67069.06
2022-08-11T14:39:13.292Z,67138.53
2022-08-11T14:44:35.727Z,66982.75
2022-08-11T14:49:56.087Z,67084.69
2022-08-11T14:55:26.271Z,66938.03
2022-08-11T15:00:31.375Z,66895.59
2022-08-11T15:05:38.414Z,66930.56
2022-08-11T15:10:42.711Z,67037.78
2022-08-11T15:16:06.040Z,67045.31
2022-08-11T15:21:29.191Z,67046.88
2022-08-11T15:27:12.245Z,67095.56
2022-08-11T15:32:35.963Z,67170.50
2022-08-11T15:37:44.361Z,67032.97
2022-08-11T15:43:12.893Z,67010.75
2022-08-11T15:48:28.675Z,67031.28
2022-08-11T15:53:40.276Z,66951.50
2022-08-11T15:59:40.703Z,66957.50
2022-08-11T16:04:32.240Z,66996.16
2022-08-11T16:09:47.711Z,66997.88
2022-08-11T16:15:20.291Z,66963.84
2022-08-11T16:20:27.365Z,66925.63
2022-08-11T16:27:02.758Z,66894.44
2022-08-11T16:31:00.501Z,66911.16
2022-08-11T16:36:37.248Z,66875.47
2022-08-11T16:42:02.150Z,66856.66
2022-08-11T16:47:07.672Z,66867.91
2022-08-11T16:52:12.891Z,66879.75
2022-08-11T16:57:39.366Z,66900.84
2022-08-11T17:03:03.559Z,66967.06
2022-08-11T17:08:38.779Z,66973.06
2022-08-11T17:13:46.400Z,66919.22
2022-08-11T17:18:55.730Z,66908.31
2022-08-11T17:24:08.419Z,66943.97
2022-08-11T17:29:15.215Z,66942.81
2022-08-11T17:34:36.534Z,66937.56
2022-08-11T17:39:42.729Z,67035.00
2022-08-11T17:45:07.219Z,67059.38
2022-08-11T17:50:17.974Z,67022.06
2022-08-11T17:55:51.819Z,67020.50
2022-08-11T18:01:02.282Z,67078.75
2022-08-11T18:06:16.149Z,67002.25
2022-08-11T18:12:10.119Z,66959.06
2022-08-11T18:17:22.202Z,66979.06
2022-08-11T18:22:48.387Z,66933.66
2022-08-11T18:28:11.788Z,66931.66
2022-08-11T18:33:56.839Z,66944.59
2022-08-11T18:39:19.580Z,66958.59
2022-08-11T18:44:44.712Z,67000.03
2022-08-11T18:50:11.787Z,66976.91
2022-08-11T18:55:38.492Z,66989.84
2022-08-11T19:01:01.754Z,66955.13
2022-08-11T19:06:38.574Z,66972.00
2022-08-11T19:12:03.442Z,66976.75
2022-08-11T19:17:44.079Z,66973.69
2022-08-11T19:23:11.761Z,66860.38
2022-08-11T19:28:35.196Z,66870.59
2022-08-11T19:34:03.206Z,66812.03
2022-08-11T19:39:33.963Z,66803.75
2022-08-11T19:44:55.475Z,66796.81
2022-08-11T19:50:24.179Z,66783.50
2022-08-11T19:55:48.235Z,66811.50
2022-08-11T20:01:09.484Z,66781.75
2022-08-11T20:06:32.148Z,66807.56
2022-08-11T20:12:00.147Z,66877.75
2022-08-11T20:17:22.411Z,66916.41
2022-08-11T20:22:45.164Z,66923.47
2022-08-11T20:28:10.705Z,66882.59
2022-08-11T20:33:32.296Z,66872.31
2022-08-11T20:38:55.519Z,66862.13
2022-08-11T20:44:20.005Z,66866.44
2022-08-11T20:49:48.838Z,66797.41
2022-08-11T20:55:19.179Z,66868.53
2022-08-11T21:00:49.615Z,66822.06
2022-08-11T21:06:12.769Z,66848.13
2022-08-11T21:11:36.161Z,66790.97
2022-08-11T21:17:26.748Z,66736.16
2022-08-11T21:22:59.190Z,66727.47
2022-08-11T21:28:28.847Z,66812.50
2022-08-11T21:33:51.567Z,66766.72
2022-08-11T21:39:13.379Z,66728.53
2022-08-11T21:44:35.113Z,66834.06
2022-08-11T21:49:59.369Z,66828.06
2022-08-11T21:55:22.073Z,66666.25
2022-08-11T22:00:44.248Z,66664.56
2022-08-11T22:06:08.206Z,66715.16
2022-08-11T22:11:32.096Z,66800.66
2022-08-11T22:16:54.195Z,66794.19
2022-08-11T22:22:18.337Z,66824.44
2022-08-11T22:27:46.772Z,66889.63
2022-08-11T22:33:08.595Z,66852.97
2022-08-11T22:38:31.611Z,66788.34
2022-08-11T22:43:52.565Z,66764.59
2022-08-11T22:49:15.227Z,66786.19
2022-08-11T22:54:39.223Z,66718.84
2022-08-11T23:00:00.830Z,66812.97
2022-08-11T23:05:22.631Z,66615.56
2022-08-11T23:10:45.845Z,66644.13
2022-08-11T23:16:07.202Z,66586.53
2022-08-11T23:21:31.120Z,66651.59
2022-08-11T23:26:56.023Z,66709.25
2022-08-11T23:32:17.109Z,66775.88
2022-08-11T23:37:40.363Z,66738.84
2022-08-11T23:43:03.002Z,66717.25
2022-08-11T23:48:26.256Z,66734.53
2022-08-11T23:53:48.263Z,66745.75
2022-08-11T23:59:11.687Z,66753.34
